sensor_id;sensor_type;location;lat;lon;timestamp;P1;durP1;ratioP1;P2;durP2;ratioP2
52033;SDS011;38045;52.988;6.536;2023-02-11T00:00:58;20.50;;;7.93;;
52033;SDS011;38045;52.988;6.536;2023-02-11T00:03:24;14.52;;;4.45;;
52033;SDS011;38045;52.988;6.536;2023-02-11T00:06:00;23.30;;;8.10;;
52033;SDS011;38045;52.988;6.536;2023-02-11T00:08:27;12.32;;;6.38;;
52033;SDS011;38045;52.988;6.536;2023-02-11T00:10:53;16.25;;;6.90;;
52033;SDS011;38045;52.988;6.536;2023-02-11T00:15:48;17.00;;;7.13;;
52033;SDS011;38045;52.988;6.536;2023-02-11T00:18:14;20.67;;;7.05;;
52033;SDS011;38045;52.988;6.536;2023-02-11T00:20:40;9.02;;;5.50;;
52033;SDS011;38045;52.988;6.536;2023-02-11T00:23:06;19.33;;;7.10;;
52033;SDS011;38045;52.988;6.536;2023-02-11T00:25:32;19.60;;;7.10;;
52033;SDS011;38045;52.988;6.536;2023-02-11T00:27:58;17.92;;;6.47;;
52033;SDS011;38045;52.988;6.536;2023-02-11T00:30:24;14.27;;;7.22;;
52033;SDS011;38045;52.988;6.536;2023-02-11T00:32:49;8.43;;;5.43;;
52033;SDS011;38045;52.988;6.536;2023-02-11T00:35:15;13.00;;;8.40;;
52033;SDS011;38045;52.988;6.536;2023-02-11T00:37:41;10.35;;;5.18;;
52033;SDS011;38045;52.988;6.536;2023-02-11T00:40:06;14.15;;;7.35;;
52033;SDS011;38045;52.988;6.536;2023-02-11T00:42:32;16.30;;;6.43;;
52033;SDS011;38045;52.988;6.536;2023-02-11T00:44:59;5.70;;;3.70;;
52033;SDS011;38045;52.988;6.536;2023-02-11T00:47:26;16.33;;;5.78;;
52033;SDS011;38045;52.988;6.536;2023-02-11T00:49:52;20.30;;;6.43;;
52033;SDS011;38045;52.988;6.536;2023-02-11T00:52:17;16.58;;;4.93;;
52033;SDS011;38045;52.988;6.536;2023-02-11T00:54:43;28.13;;;6.03;;
52033;SDS011;38045;52.988;6.536;2023-02-11T00:57:08;13.55;;;5.10;;
52033;SDS011;38045;52.988;6.536;2023-02-11T00:59:34;19.95;;;7.68;;
52033;SDS011;38045;52.988;6.536;2023-02-11T01:02:00;17.90;;;8.30;;
52033;SDS011;38045;52.988;6.536;2023-02-11T01:04:25;19.13;;;6.90;;
52033;SDS011;38045;52.988;6.536;2023-02-11T01:06:51;8.10;;;4.50;;
52033;SDS011;38045;52.988;6.536;2023-02-11T01:09:16;13.88;;;3.88;;
52033;SDS011;38045;52.988;6.536;2023-02-11T01:11:42;13.27;;;5.35;;
52033;SDS011;38045;52.988;6.536;2023-02-11T01:14:08;23.48;;;8.02;;
52033;SDS011;38045;52.988;6.536;2023-02-11T01:16:33;19.27;;;7.10;;
52033;SDS011;38045;52.988;6.536;2023-02-11T01:18:59;15.57;;;6.70;;
52033;SDS011;38045;52.988;6.536;2023-02-11T01:21:25;20.85;;;8.13;;
52033;SDS011;38045;52.988;6.536;2023-02-11T01:23:51;24.02;;;8.23;;
52033;SDS011;38045;52.988;6.536;2023-02-11T01:26:16;15.13;;;6.22;;
52033;SDS011;38045;52.988;6.536;2023-02-11T01:28:42;15.50;;;5.70;;
52033;SDS011;38045;52.988;6.536;2023-02-11T01:31:08;15.23;;;7.38;;
52033;SDS011;38045;52.988;6.536;2023-02-11T01:33:33;15.95;;;7.95;;
52033;SDS011;38045;52.988;6.536;2023-02-11T01:36:00;14.82;;;7.00;;
52033;SDS011;38045;52.988;6.536;2023-02-11T01:38:27;12.48;;;5.38;;
52033;SDS011;38045;52.988;6.536;2023-02-11T01:40:54;9.82;;;5.07;;
52033;SDS011;38045;52.988;6.536;2023-02-11T01:43:22;16.40;;;8.13;;
52033;SDS011;38045;52.988;6.536;2023-02-11T01:45:55;12.15;;;5.35;;
52033;SDS011;38045;52.988;6.536;2023-02-11T01:48:26;21.77;;;8.57;;
52033;SDS011;38045;52.988;6.536;2023-02-11T01:51:03;20.80;;;7.65;;
52033;SDS011;38045;52.988;6.536;2023-02-11T01:53:34;15.00;;;6.97;;
52033;SDS011;38045;52.988;6.536;2023-02-11T01:56:21;29.67;;;10.40;;
52033;SDS011;38045;52.988;6.536;2023-02-11T01:59:11;18.13;;;7.65;;
52033;SDS011;38045;52.988;6.536;2023-02-11T02:01:45;13.35;;;6.53;;
52033;SDS011;38045;52.988;6.536;2023-02-11T02:04:16;15.25;;;6.50;;
52033;SDS011;38045;52.988;6.536;2023-02-11T02:06:44;14.07;;;6.53;;
52033;SDS011;38045;52.988;6.536;2023-02-11T02:09:20;24.30;;;9.48;;
52033;SDS011;38045;52.988;6.536;2023-02-11T02:11:50;23.48;;;7.35;;
52033;SDS011;38045;52.988;6.536;2023-02-11T02:14:16;15.70;;;7.75;;
52033;SDS011;38045;52.988;6.536;2023-02-11T02:16:42;23.42;;;8.10;;
52033;SDS011;38045;52.988;6.536;2023-02-11T02:22:41;26.67;;;9.20;;
52033;SDS011;38045;52.988;6.536;2023-02-11T02:27:36;22.15;;;10.93;;
52033;SDS011;38045;52.988;6.536;2023-02-11T02:33:44;20.45;;;11.32;;
52033;SDS011;38045;52.988;6.536;2023-02-11T02:36:21;30.73;;;13.32;;
52033;SDS011;38045;52.988;6.536;2023-02-11T02:39:00;23.52;;;11.02;;
52033;SDS011;38045;52.988;6.536;2023-02-11T02:41:32;15.93;;;9.15;;
52033;SDS011;38045;52.988;6.536;2023-02-11T02:44:00;30.92;;;13.43;;
52033;SDS011;38045;52.988;6.536;2023-02-11T02:46:27;37.42;;;16.40;;
52033;SDS011;38045;52.988;6.536;2023-02-11T02:48:54;34.88;;;13.55;;
52033;SDS011;38045;52.988;6.536;2023-02-11T03:00:34;26.73;;;11.73;;
52033;SDS011;38045;52.988;6.536;2023-02-11T03:06:12;27.25;;;16.33;;
52033;SDS011;38045;52.988;6.536;2023-02-11T03:08:56;16.40;;;9.10;;
52033;SDS011;38045;52.988;6.536;2023-02-11T03:11:30;35.63;;;17.30;;
52033;SDS011;38045;52.988;6.536;2023-02-11T03:13:57;33.50;;;16.70;;
52033;SDS011;38045;52.988;6.536;2023-02-11T03:16:27;28.10;;;15.07;;
52033;SDS011;38045;52.988;6.536;2023-02-11T03:19:11;26.73;;;13.40;;
52033;SDS011;38045;52.988;6.536;2023-02-11T03:21:42;27.08;;;17.48;;
52033;SDS011;38045;52.988;6.536;2023-02-11T03:24:15;17.70;;;9.40;;
52033;SDS011;38045;52.988;6.536;2023-02-11T03:26:47;25.63;;;15.45;;
52033;SDS011;38045;52.988;6.536;2023-02-11T03:29:25;39.15;;;15.95;;
52033;SDS011;38045;52.988;6.536;2023-02-11T03:34:56;28.00;;;14.48;;
52033;SDS011;38045;52.988;6.536;2023-02-11T03:40:01;36.53;;;18.98;;
52033;SDS011;38045;52.988;6.536;2023-02-11T03:42:43;29.45;;;17.63;;
52033;SDS011;38045;52.988;6.536;2023-02-11T03:45:17;28.90;;;14.80;;
52033;SDS011;38045;52.988;6.536;2023-02-11T03:47:47;23.20;;;14.75;;
52033;SDS011;38045;52.988;6.536;2023-02-11T03:50:16;33.35;;;19.20;;
52033;SDS011;38045;52.988;6.536;2023-02-11T03:52:43;32.38;;;18.58;;
52033;SDS011;38045;52.988;6.536;2023-02-11T03:55:11;24.90;;;14.25;;
52033;SDS011;38045;52.988;6.536;2023-02-11T03:57:40;28.95;;;17.92;;
52033;SDS011;38045;52.988;6.536;2023-02-11T04:00:06;23.08;;;13.77;;
52033;SDS011;38045;52.988;6.536;2023-02-11T04:02:34;36.75;;;18.23;;
52033;SDS011;38045;52.988;6.536;2023-02-11T04:05:00;30.80;;;16.23;;
52033;SDS011;38045;52.988;6.536;2023-02-11T04:07:27;24.17;;;10.30;;
52033;SDS011;38045;52.988;6.536;2023-02-11T04:09:53;34.85;;;17.58;;
52033;SDS011;38045;52.988;6.536;2023-02-11T04:12:18;28.20;;;17.33;;
52033;SDS011;38045;52.988;6.536;2023-02-11T04:14:44;33.65;;;18.38;;
52033;SDS011;38045;52.988;6.536;2023-02-11T04:17:10;35.60;;;18.85;;
52033;SDS011;38045;52.988;6.536;2023-02-11T04:19:37;24.50;;;16.23;;
52033;SDS011;38045;52.988;6.536;2023-02-11T04:22:03;30.05;;;19.52;;
52033;SDS011;38045;52.988;6.536;2023-02-11T04:24:29;25.85;;;17.40;;
52033;SDS011;38045;52.988;6.536;2023-02-11T04:26:55;43.35;;;19.65;;
52033;SDS011;38045;52.988;6.536;2023-02-11T04:29:20;40.40;;;21.75;;
52033;SDS011;38045;52.988;6.536;2023-02-11T04:31:46;30.95;;;16.98;;
52033;SDS011;38045;52.988;6.536;2023-02-11T04:34:12;32.22;;;17.85;;
52033;SDS011;38045;52.988;6.536;2023-02-11T04:36:38;26.40;;;15.52;;
52033;SDS011;38045;52.988;6.536;2023-02-11T04:39:03;26.95;;;15.27;;
52033;SDS011;38045;52.988;6.536;2023-02-11T04:41:29;30.92;;;18.55;;
52033;SDS011;38045;52.988;6.536;2023-02-11T04:43:55;26.58;;;15.88;;
52033;SDS011;38045;52.988;6.536;2023-02-11T04:46:20;29.02;;;16.20;;
52033;SDS011;38045;52.988;6.536;2023-02-11T04:48:46;29.33;;;19.30;;
52033;SDS011;38045;52.988;6.536;2023-02-11T04:51:12;33.50;;;17.58;;
52033;SDS011;38045;52.988;6.536;2023-02-11T04:53:37;26.75;;;12.48;;
52033;SDS011;38045;52.988;6.536;2023-02-11T04:56:03;19.88;;;9.18;;
52033;SDS011;38045;52.988;6.536;2023-02-11T04:58:29;28.23;;;16.63;;
52033;SDS011;38045;52.988;6.536;2023-02-11T05:00:54;32.70;;;22.10;;
52033;SDS011;38045;52.988;6.536;2023-02-11T05:03:20;41.50;;;22.73;;
52033;SDS011;38045;52.988;6.536;2023-02-11T05:05:45;32.13;;;18.98;;
52033;SDS011;38045;52.988;6.536;2023-02-11T05:08:11;37.75;;;21.35;;
52033;SDS011;38045;52.988;6.536;2023-02-11T05:10:37;30.85;;;17.63;;
52033;SDS011;38045;52.988;6.536;2023-02-11T05:13:03;31.73;;;20.67;;
52033;SDS011;38045;52.988;6.536;2023-02-11T05:15:28;35.33;;;19.15;;
52033;SDS011;38045;52.988;6.536;2023-02-11T05:17:54;32.08;;;18.33;;
52033;SDS011;38045;52.988;6.536;2023-02-11T05:20:20;35.40;;;15.13;;
52033;SDS011;38045;52.988;6.536;2023-02-11T05:22:46;38.72;;;20.92;;
52033;SDS011;38045;52.988;6.536;2023-02-11T05:25:12;34.08;;;19.23;;
52033;SDS011;38045;52.988;6.536;2023-02-11T05:27:37;36.38;;;21.63;;
52033;SDS011;38045;52.988;6.536;2023-02-11T05:30:04;37.30;;;18.95;;
52033;SDS011;38045;52.988;6.536;2023-02-11T05:32:30;40.17;;;20.98;;
52033;SDS011;38045;52.988;6.536;2023-02-11T05:34:55;35.17;;;22.13;;
52033;SDS011;38045;52.988;6.536;2023-02-11T05:37:21;39.17;;;21.00;;
52033;SDS011;38045;52.988;6.536;2023-02-11T05:39:46;26.27;;;15.75;;
52033;SDS011;38045;52.988;6.536;2023-02-11T05:42:12;41.63;;;24.05;;
52033;SDS011;38045;52.988;6.536;2023-02-11T05:44:38;29.40;;;15.93;;
52033;SDS011;38045;52.988;6.536;2023-02-11T05:47:04;48.63;;;24.98;;
52033;SDS011;38045;52.988;6.536;2023-02-11T05:49:29;38.38;;;18.88;;
52033;SDS011;38045;52.988;6.536;2023-02-11T05:51:55;37.38;;;22.30;;
52033;SDS011;38045;52.988;6.536;2023-02-11T05:54:20;38.88;;;20.83;;
52033;SDS011;38045;52.988;6.536;2023-02-11T05:56:46;44.95;;;24.08;;
52033;SDS011;38045;52.988;6.536;2023-02-11T05:59:12;31.10;;;18.08;;
52033;SDS011;38045;52.988;6.536;2023-02-11T06:01:38;34.45;;;19.95;;
52033;SDS011;38045;52.988;6.536;2023-02-11T06:04:04;41.95;;;23.30;;
52033;SDS011;38045;52.988;6.536;2023-02-11T06:06:30;22.27;;;14.50;;
52033;SDS011;38045;52.988;6.536;2023-02-11T06:08:56;29.02;;;17.80;;
52033;SDS011;38045;52.988;6.536;2023-02-11T06:11:21;37.10;;;18.65;;
52033;SDS011;38045;52.988;6.536;2023-02-11T06:13:47;33.05;;;20.15;;
52033;SDS011;38045;52.988;6.536;2023-02-11T06:16:13;29.90;;;20.10;;
52033;SDS011;38045;52.988;6.536;2023-02-11T06:18:38;28.60;;;20.33;;
52033;SDS011;38045;52.988;6.536;2023-02-11T06:21:08;25.48;;;16.25;;
52033;SDS011;38045;52.988;6.536;2023-02-11T06:23:34;34.80;;;22.35;;
52033;SDS011;38045;52.988;6.536;2023-02-11T06:26:07;42.40;;;24.83;;
52033;SDS011;38045;52.988;6.536;2023-02-11T06:28:39;25.90;;;12.30;;
52033;SDS011;38045;52.988;6.536;2023-02-11T06:31:05;22.40;;;14.70;;
52033;SDS011;38045;52.988;6.536;2023-02-11T06:33:31;34.67;;;18.60;;
52033;SDS011;38045;52.988;6.536;2023-02-11T06:35:58;40.88;;;23.88;;
52033;SDS011;38045;52.988;6.536;2023-02-11T06:38:24;35.13;;;21.05;;
52033;SDS011;38045;52.988;6.536;2023-02-11T06:40:50;29.88;;;20.25;;
52033;SDS011;38045;52.988;6.536;2023-02-11T06:43:15;34.03;;;22.15;;
52033;SDS011;38045;52.988;6.536;2023-02-11T06:45:41;42.38;;;23.75;;
52033;SDS011;38045;52.988;6.536;2023-02-11T06:48:07;43.05;;;20.52;;
52033;SDS011;38045;52.988;6.536;2023-02-11T06:50:33;36.13;;;22.27;;
52033;SDS011;38045;52.988;6.536;2023-02-11T06:52:59;32.22;;;21.52;;
52033;SDS011;38045;52.988;6.536;2023-02-11T06:55:24;37.65;;;21.60;;
52033;SDS011;38045;52.988;6.536;2023-02-11T06:57:50;43.90;;;26.23;;
52033;SDS011;38045;52.988;6.536;2023-02-11T07:00:16;28.67;;;20.92;;
52033;SDS011;38045;52.988;6.536;2023-02-11T07:02:42;44.75;;;26.00;;
52033;SDS011;38045;52.988;6.536;2023-02-11T07:05:08;36.90;;;21.15;;
52033;SDS011;38045;52.988;6.536;2023-02-11T07:07:34;40.53;;;20.73;;
52033;SDS011;38045;52.988;6.536;2023-02-11T07:10:00;56.65;;;28.92;;
52033;SDS011;38045;52.988;6.536;2023-02-11T07:12:28;58.53;;;28.95;;
52033;SDS011;38045;52.988;6.536;2023-02-11T07:14:54;44.80;;;25.75;;
52033;SDS011;38045;52.988;6.536;2023-02-11T07:17:20;35.78;;;21.98;;
52033;SDS011;38045;52.988;6.536;2023-02-11T07:19:46;33.30;;;18.63;;
52033;SDS011;38045;52.988;6.536;2023-02-11T07:22:12;28.05;;;16.15;;
52033;SDS011;38045;52.988;6.536;2023-02-11T07:24:37;29.98;;;21.00;;
52033;SDS011;38045;52.988;6.536;2023-02-11T07:27:03;37.75;;;24.08;;
52033;SDS011;38045;52.988;6.536;2023-02-11T07:29:28;43.22;;;24.02;;
52033;SDS011;38045;52.988;6.536;2023-02-11T07:31:54;36.80;;;19.35;;
52033;SDS011;38045;52.988;6.536;2023-02-11T07:34:19;43.60;;;27.20;;
52033;SDS011;38045;52.988;6.536;2023-02-11T07:36:45;44.08;;;25.60;;
52033;SDS011;38045;52.988;6.536;2023-02-11T07:39:12;49.22;;;24.13;;
52033;SDS011;38045;52.988;6.536;2023-02-11T07:41:38;41.88;;;25.63;;
52033;SDS011;38045;52.988;6.536;2023-02-11T07:44:04;27.38;;;14.20;;
52033;SDS011;38045;52.988;6.536;2023-02-11T07:46:30;20.00;;;15.05;;
52033;SDS011;38045;52.988;6.536;2023-02-11T07:48:56;48.85;;;26.83;;
52033;SDS011;38045;52.988;6.536;2023-02-11T07:51:26;35.88;;;23.67;;
52033;SDS011;38045;52.988;6.536;2023-02-11T07:53:53;37.55;;;27.10;;
52033;SDS011;38045;52.988;6.536;2023-02-11T07:56:20;41.42;;;24.83;;
52033;SDS011;38045;52.988;6.536;2023-02-11T07:58:46;37.30;;;25.13;;
52033;SDS011;38045;52.988;6.536;2023-02-11T08:01:14;44.88;;;23.77;;
52033;SDS011;38045;52.988;6.536;2023-02-11T08:03:42;33.95;;;20.13;;
52033;SDS011;38045;52.988;6.536;2023-02-11T08:06:12;41.35;;;27.50;;
52033;SDS011;38045;52.988;6.536;2023-02-11T08:08:39;40.70;;;21.10;;
52033;SDS011;38045;52.988;6.536;2023-02-11T08:11:06;43.30;;;25.42;;
52033;SDS011;38045;52.988;6.536;2023-02-11T08:13:32;30.42;;;18.75;;
52033;SDS011;38045;52.988;6.536;2023-02-11T08:15:58;39.90;;;24.23;;
52033;SDS011;38045;52.988;6.536;2023-02-11T08:18:23;32.83;;;19.27;;
52033;SDS011;38045;52.988;6.536;2023-02-11T08:20:49;30.33;;;15.23;;
52033;SDS011;38045;52.988;6.536;2023-02-11T08:23:15;30.60;;;19.90;;
52033;SDS011;38045;52.988;6.536;2023-02-11T08:25:40;40.13;;;26.23;;
52033;SDS011;38045;52.988;6.536;2023-02-11T08:28:06;33.42;;;22.80;;
52033;SDS011;38045;52.988;6.536;2023-02-11T08:30:33;40.75;;;25.40;;
52033;SDS011;38045;52.988;6.536;2023-02-11T08:32:59;33.55;;;22.02;;
52033;SDS011;38045;52.988;6.536;2023-02-11T08:35:24;37.40;;;24.45;;
52033;SDS011;38045;52.988;6.536;2023-02-11T08:37:50;35.83;;;23.33;;
52033;SDS011;38045;52.988;6.536;2023-02-11T08:40:16;32.55;;;15.23;;
52033;SDS011;38045;52.988;6.536;2023-02-11T08:42:42;39.67;;;22.02;;
52033;SDS011;38045;52.988;6.536;2023-02-11T08:45:07;37.53;;;24.20;;
52033;SDS011;38045;52.988;6.536;2023-02-11T08:47:34;26.67;;;15.88;;
52033;SDS011;38045;52.988;6.536;2023-02-11T08:50:00;29.48;;;15.00;;
52033;SDS011;38045;52.988;6.536;2023-02-11T08:52:26;31.70;;;21.25;;
52033;SDS011;38045;52.988;6.536;2023-02-11T08:54:52;30.77;;;23.73;;
52033;SDS011;38045;52.988;6.536;2023-02-11T08:57:17;39.47;;;22.27;;
52033;SDS011;38045;52.988;6.536;2023-02-11T08:59:43;39.42;;;23.13;;
52033;SDS011;38045;52.988;6.536;2023-02-11T09:02:10;47.85;;;26.08;;
52033;SDS011;38045;52.988;6.536;2023-02-11T09:04:37;16.50;;;9.73;;
52033;SDS011;38045;52.988;6.536;2023-02-11T09:07:03;36.65;;;23.27;;
52033;SDS011;38045;52.988;6.536;2023-02-11T09:09:28;31.45;;;16.60;;
52033;SDS011;38045;52.988;6.536;2023-02-11T09:11:54;35.90;;;22.45;;
52033;SDS011;38045;52.988;6.536;2023-02-11T09:14:22;32.67;;;21.15;;
52033;SDS011;38045;52.988;6.536;2023-02-11T09:16:49;23.52;;;13.15;;
52033;SDS011;38045;52.988;6.536;2023-02-11T09:19:15;36.47;;;22.10;;
52033;SDS011;38045;52.988;6.536;2023-02-11T09:21:42;31.60;;;21.27;;
52033;SDS011;38045;52.988;6.536;2023-02-11T09:24:07;33.70;;;21.23;;
52033;SDS011;38045;52.988;6.536;2023-02-11T09:26:34;32.22;;;20.25;;
52033;SDS011;38045;52.988;6.536;2023-02-11T09:29:01;27.90;;;18.98;;
52033;SDS011;38045;52.988;6.536;2023-02-11T09:31:28;26.48;;;15.80;;
52033;SDS011;38045;52.988;6.536;2023-02-11T09:34:01;32.07;;;18.47;;
52033;SDS011;38045;52.988;6.536;2023-02-11T09:36:32;32.78;;;21.13;;
52033;SDS011;38045;52.988;6.536;2023-02-11T09:39:02;16.00;;;10.63;;
52033;SDS011;38045;52.988;6.536;2023-02-11T09:44:21;26.85;;;19.10;;
52033;SDS011;38045;52.988;6.536;2023-02-11T09:46:55;25.00;;;16.00;;
52033;SDS011;38045;52.988;6.536;2023-02-11T09:49:24;20.33;;;13.13;;
52033;SDS011;38045;52.988;6.536;2023-02-11T09:57:20;34.33;;;19.30;;
52033;SDS011;38045;52.988;6.536;2023-02-11T09:59:45;28.40;;;11.05;;
52033;SDS011;38045;52.988;6.536;2023-02-11T10:02:19;22.65;;;14.90;;
52033;SDS011;38045;52.988;6.536;2023-02-11T10:07:47;19.67;;;11.75;;
52033;SDS011;38045;52.988;6.536;2023-02-11T10:13:15;19.10;;;14.82;;
52033;SDS011;38045;52.988;6.536;2023-02-11T10:15:44;29.30;;;15.82;;
52033;SDS011;38045;52.988;6.536;2023-02-11T10:23:55;23.42;;;14.48;;
52033;SDS011;38045;52.988;6.536;2023-02-11T10:26:28;24.80;;;13.80;;
52033;SDS011;38045;52.988;6.536;2023-02-11T10:28:55;21.77;;;15.15;;
52033;SDS011;38045;52.988;6.536;2023-02-11T10:31:36;27.95;;;15.57;;
52033;SDS011;38045;52.988;6.536;2023-02-11T10:34:08;26.02;;;15.43;;
52033;SDS011;38045;52.988;6.536;2023-02-11T10:36:36;15.80;;;11.93;;
52033;SDS011;38045;52.988;6.536;2023-02-11T10:39:14;26.15;;;13.32;;
52033;SDS011;38045;52.988;6.536;2023-02-11T10:41:55;19.75;;;11.90;;
52033;SDS011;38045;52.988;6.536;2023-02-11T10:46:51;24.90;;;12.98;;
52033;SDS011;38045;52.988;6.536;2023-02-11T10:52:26;25.60;;;11.63;;
52033;SDS011;38045;52.988;6.536;2023-02-11T10:55:17;20.27;;;12.05;;
52033;SDS011;38045;52.988;6.536;2023-02-11T11:00:40;10.88;;;9.75;;
52033;SDS011;38045;52.988;6.536;2023-02-11T11:03:17;25.83;;;11.95;;
52033;SDS011;38045;52.988;6.536;2023-02-11T11:05:46;12.30;;;8.10;;
52033;SDS011;38045;52.988;6.536;2023-02-11T11:08:14;20.50;;;10.60;;
52033;SDS011;38045;52.988;6.536;2023-02-11T11:11:23;16.25;;;9.05;;
52033;SDS011;38045;52.988;6.536;2023-02-11T11:13:35;10.60;;;8.60;;
52033;SDS011;38045;52.988;6.536;2023-02-11T11:18:38;16.38;;;10.57;;
52033;SDS011;38045;52.988;6.536;2023-02-11T11:21:05;19.35;;;9.00;;
52033;SDS011;38045;52.988;6.536;2023-02-11T11:23:59;14.98;;;9.02;;
52033;SDS011;38045;52.988;6.536;2023-02-11T11:26:40;14.07;;;7.83;;
52033;SDS011;38045;52.988;6.536;2023-02-11T11:29:14;10.60;;;8.75;;
52033;SDS011;38045;52.988;6.536;2023-02-11T11:32:05;17.38;;;9.35;;
52033;SDS011;38045;52.988;6.536;2023-02-11T11:34:37;13.82;;;8.23;;
52033;SDS011;38045;52.988;6.536;2023-02-11T11:37:13;17.33;;;8.20;;
52033;SDS011;38045;52.988;6.536;2023-02-11T11:45:27;13.57;;;7.72;;
52033;SDS011;38045;52.988;6.536;2023-02-11T11:48:09;18.38;;;8.27;;
52033;SDS011;38045;52.988;6.536;2023-02-11T11:50:43;11.43;;;7.65;;
52033;SDS011;38045;52.988;6.536;2023-02-11T11:56:27;22.05;;;9.57;;
52033;SDS011;38045;52.988;6.536;2023-02-11T11:58:57;6.63;;;4.55;;
52033;SDS011;38045;52.988;6.536;2023-02-11T12:04:46;19.23;;;8.93;;
52033;SDS011;38045;52.988;6.536;2023-02-11T12:15:54;14.85;;;5.63;;
52033;SDS011;38045;52.988;6.536;2023-02-11T12:21:45;17.15;;;5.90;;
52033;SDS011;38045;52.988;6.536;2023-02-11T12:27:05;18.83;;;7.18;;
52033;SDS011;38045;52.988;6.536;2023-02-11T12:44:21;19.45;;;3.50;;
52033;SDS011;38045;52.988;6.536;2023-02-11T12:49:58;16.60;;;4.85;;
52033;SDS011;38045;52.988;6.536;2023-02-11T12:52:32;11.93;;;4.32;;
52033;SDS011;38045;52.988;6.536;2023-02-11T12:55:24;8.95;;;4.38;;
52033;SDS011;38045;52.988;6.536;2023-02-11T12:57:52;9.00;;;3.85;;
52033;SDS011;38045;52.988;6.536;2023-02-11T13:00:22;13.00;;;5.18;;
52033;SDS011;38045;52.988;6.536;2023-02-11T13:02:55;15.45;;;5.22;;
52033;SDS011;38045;52.988;6.536;2023-02-11T13:05:26;8.93;;;4.00;;
52033;SDS011;38045;52.988;6.536;2023-02-11T13:08:03;17.25;;;4.28;;
52033;SDS011;38045;52.988;6.536;2023-02-11T13:10:39;10.45;;;3.55;;
52033;SDS011;38045;52.988;6.536;2023-02-11T13:13:12;11.35;;;4.03;;
52033;SDS011;38045;52.988;6.536;2023-02-11T13:16:02;11.85;;;3.63;;
52033;SDS011;38045;52.988;6.536;2023-02-11T13:21:28;11.82;;;4.82;;
52033;SDS011;38045;52.988;6.536;2023-02-11T13:32:27;16.88;;;5.13;;
52033;SDS011;38045;52.988;6.536;2023-02-11T13:37:56;10.65;;;3.30;;
52033;SDS011;38045;52.988;6.536;2023-02-11T13:40:25;8.90;;;4.47;;
52033;SDS011;38045;52.988;6.536;2023-02-11T13:42:53;18.40;;;5.63;;
52033;SDS011;38045;52.988;6.536;2023-02-11T13:48:06;9.63;;;4.07;;
52033;SDS011;38045;52.988;6.536;2023-02-11T13:50:55;9.80;;;3.22;;
52033;SDS011;38045;52.988;6.536;2023-02-11T13:53:23;11.57;;;3.47;;
52033;SDS011;38045;52.988;6.536;2023-02-11T13:55:52;8.60;;;3.15;;
52033;SDS011;38045;52.988;6.536;2023-02-11T13:58:33;16.90;;;4.07;;
52033;SDS011;38045;52.988;6.536;2023-02-11T14:01:04;15.27;;;4.28;;
52033;SDS011;38045;52.988;6.536;2023-02-11T14:03:31;12.48;;;4.15;;
52033;SDS011;38045;52.988;6.536;2023-02-11T14:06:17;8.60;;;3.55;;
52033;SDS011;38045;52.988;6.536;2023-02-11T14:09:08;11.20;;;2.63;;
52033;SDS011;38045;52.988;6.536;2023-02-11T14:19:32;9.90;;;3.95;;
52033;SDS011;38045;52.988;6.536;2023-02-11T14:27:10;26.58;;;5.45;;
52033;SDS011;38045;52.988;6.536;2023-02-11T14:29:55;9.80;;;3.22;;
52033;SDS011;38045;52.988;6.536;2023-02-11T14:35:50;11.85;;;4.57;;
52033;SDS011;38045;52.988;6.536;2023-02-11T14:41:28;22.27;;;4.38;;
52033;SDS011;38045;52.988;6.536;2023-02-11T14:43:59;14.10;;;4.35;;
52033;SDS011;38045;52.988;6.536;2023-02-11T14:46:29;15.25;;;4.50;;
52033;SDS011;38045;52.988;6.536;2023-02-11T14:48:57;10.00;;;2.78;;
52033;SDS011;38045;52.988;6.536;2023-02-11T14:51:33;17.75;;;5.60;;
52033;SDS011;38045;52.988;6.536;2023-02-11T14:54:11;22.63;;;4.47;;
52033;SDS011;38045;52.988;6.536;2023-02-11T14:56:41;11.30;;;3.88;;
52033;SDS011;38045;52.988;6.536;2023-02-11T14:59:15;13.55;;;4.82;;
52033;SDS011;38045;52.988;6.536;2023-02-11T15:01:45;23.45;;;4.30;;
52033;SDS011;38045;52.988;6.536;2023-02-11T15:04:29;7.47;;;3.15;;
52033;SDS011;38045;52.988;6.536;2023-02-11T15:06:58;9.00;;;3.22;;
52033;SDS011;38045;52.988;6.536;2023-02-11T15:09:36;14.18;;;4.45;;
52033;SDS011;38045;52.988;6.536;2023-02-11T15:12:06;9.00;;;2.42;;
52033;SDS011;38045;52.988;6.536;2023-02-11T15:14:47;20.95;;;4.22;;
52033;SDS011;38045;52.988;6.536;2023-02-11T15:17:15;11.35;;;2.85;;
52033;SDS011;38045;52.988;6.536;2023-02-11T15:19:46;11.25;;;4.15;;
52033;SDS011;38045;52.988;6.536;2023-02-11T15:22:18;10.70;;;3.83;;
52033;SDS011;38045;52.988;6.536;2023-02-11T15:27:40;18.98;;;4.95;;
52033;SDS011;38045;52.988;6.536;2023-02-11T15:32:54;9.93;;;4.78;;
52033;SDS011;38045;52.988;6.536;2023-02-11T15:35:28;7.07;;;2.50;;
52033;SDS011;38045;52.988;6.536;2023-02-11T15:38:00;16.65;;;4.65;;
52033;SDS011;38045;52.988;6.536;2023-02-11T15:40:28;8.75;;;2.95;;
52033;SDS011;38045;52.988;6.536;2023-02-11T15:42:59;15.35;;;3.03;;
52033;SDS011;38045;52.988;6.536;2023-02-11T15:48:15;9.77;;;3.25;;
52033;SDS011;38045;52.988;6.536;2023-02-11T15:50:47;8.93;;;3.00;;
52033;SDS011;38045;52.988;6.536;2023-02-11T15:55:46;12.63;;;3.05;;
52033;SDS011;38045;52.988;6.536;2023-02-11T15:58:15;6.38;;;2.38;;
52033;SDS011;38045;52.988;6.536;2023-02-11T16:00:47;13.38;;;3.15;;
52033;SDS011;38045;52.988;6.536;2023-02-11T16:03:19;15.20;;;2.78;;
52033;SDS011;38045;52.988;6.536;2023-02-11T16:05:46;10.27;;;3.30;;
52033;SDS011;38045;52.988;6.536;2023-02-11T16:08:22;9.13;;;2.20;;
52033;SDS011;38045;52.988;6.536;2023-02-11T16:10:59;15.43;;;4.15;;
52033;SDS011;38045;52.988;6.536;2023-02-11T16:13:32;13.13;;;4.35;;
52033;SDS011;38045;52.988;6.536;2023-02-11T16:16:22;10.30;;;3.47;;
52033;SDS011;38045;52.988;6.536;2023-02-11T16:18:52;17.48;;;4.88;;
52033;SDS011;38045;52.988;6.536;2023-02-11T16:21:30;8.77;;;2.95;;
52033;SDS011;38045;52.988;6.536;2023-02-11T16:24:03;12.85;;;4.45;;
52033;SDS011;38045;52.988;6.536;2023-02-11T16:26:32;10.30;;;3.97;;
52033;SDS011;38045;52.988;6.536;2023-02-11T16:29:12;9.07;;;3.35;;
52033;SDS011;38045;52.988;6.536;2023-02-11T16:31:41;13.40;;;3.47;;
52033;SDS011;38045;52.988;6.536;2023-02-11T16:34:27;9.90;;;3.13;;
52033;SDS011;38045;52.988;6.536;2023-02-11T16:36:52;8.77;;;2.90;;
52033;SDS011;38045;52.988;6.536;2023-02-11T16:39:18;16.60;;;5.10;;
52033;SDS011;38045;52.988;6.536;2023-02-11T16:41:48;2.65;;;1.83;;
52033;SDS011;38045;52.988;6.536;2023-02-11T16:44:15;11.52;;;3.90;;
52033;SDS011;38045;52.988;6.536;2023-02-11T16:46:41;15.38;;;3.78;;
52033;SDS011;38045;52.988;6.536;2023-02-11T16:49:09;14.90;;;4.63;;
52033;SDS011;38045;52.988;6.536;2023-02-11T16:51:41;11.77;;;4.35;;
52033;SDS011;38045;52.988;6.536;2023-02-11T16:54:11;9.15;;;3.10;;
52033;SDS011;38045;52.988;6.536;2023-02-11T16:56:39;9.68;;;2.85;;
52033;SDS011;38045;52.988;6.536;2023-02-11T16:59:05;11.43;;;4.35;;
52033;SDS011;38045;52.988;6.536;2023-02-11T17:01:30;13.82;;;4.50;;
52033;SDS011;38045;52.988;6.536;2023-02-11T17:03:56;17.10;;;4.55;;
52033;SDS011;38045;52.988;6.536;2023-02-11T17:06:22;6.03;;;2.17;;
52033;SDS011;38045;52.988;6.536;2023-02-11T17:08:48;13.95;;;3.95;;
52033;SDS011;38045;52.988;6.536;2023-02-11T17:11:13;15.07;;;3.72;;
52033;SDS011;38045;52.988;6.536;2023-02-11T17:13:41;20.52;;;5.10;;